createdAt,value
2023-05-22T00:00:02.489Z,51.03
2023-05-22T00:01:02.472Z,51.17
2023-05-22T00:02:02.499Z,51.11
2023-05-22T00:03:02.533Z,51.44
2023-05-22T00:04:02.421Z,51.35
2023-05-22T00:05:02.477Z,51.29
2023-05-22T00:06:02.367Z,51.88
2023-05-22T00:07:02.372Z,51.65
2023-05-22T00:08:02.338Z,52.08
2023-05-22T00:09:02.317Z,52.75
2023-05-22T00:10:02.297Z,53.07
2023-05-22T00:11:02.278Z,53.34
2023-05-22T00:12:02.299Z,53.60
2023-05-22T00:13:02.250Z,53.57
2023-05-22T00:14:02.266Z,53.32
2023-05-22T00:15:02.241Z,53.21
2023-05-22T00:16:02.214Z,53.40
2023-05-22T00:17:02.371Z,53.07
2023-05-22T00:18:02.250Z,52.86
2023-05-22T00:19:02.245Z,52.86
2023-05-22T00:20:02.201Z,52.87
2023-05-22T00:21:02.191Z,52.88
2023-05-22T00:22:02.194Z,52.68
2023-05-22T00:23:02.154Z,52.67
2023-05-22T00:24:02.146Z,52.78
2023-05-22T00:25:02.131Z,52.68
2023-05-22T00:26:02.121Z,52.56
2023-05-22T00:27:02.134Z,52.68
2023-05-22T00:28:02.183Z,52.48
2023-05-22T00:29:02.243Z,52.51
2023-05-22T00:30:02.391Z,52.81
2023-05-22T00:31:02.329Z,52.84
2023-05-22T00:32:02.361Z,52.65
2023-05-22T00:33:02.492Z,52.64
2023-05-22T00:34:02.534Z,52.96
2023-05-22T00:35:02.475Z,53.07
2023-05-22T00:36:02.518Z,53.35
2023-05-22T00:37:02.584Z,53.32
2023-05-22T00:38:02.609Z,53.60
2023-05-22T00:39:02.653Z,53.87
2023-05-22T00:40:02.727Z,54.20
2023-05-22T00:41:02.769Z,54.46
2023-05-22T00:42:02.810Z,54.55
2023-05-22T00:43:02.824Z,54.66
2023-05-22T00:44:02.856Z,54.56
2023-05-22T00:45:02.895Z,54.46
2023-05-22T00:46:02.975Z,54.47
2023-05-22T00:47:03.036Z,54.31
2023-05-22T00:48:03.097Z,54.15
2023-05-22T00:49:03.057Z,54.05
2023-05-22T00:50:03.117Z,54.11
2023-05-22T00:51:03.154Z,54.20
2023-05-22T00:52:03.270Z,54.20
2023-05-22T00:53:03.253Z,54.50
2023-05-22T00:54:03.279Z,54.77
2023-05-22T00:55:03.382Z,54.88
2023-05-22T00:56:03.379Z,55.10
2023-05-22T00:57:03.437Z,55.23
2023-05-22T00:58:03.494Z,55.24
2023-05-22T00:59:03.536Z,55.29
2023-05-22T01:00:03.587Z,55.41
2023-05-22T01:01:03.642Z,55.93
2023-05-22T01:02:03.872Z,56.15
2023-05-22T01:03:03.833Z,55.89
2023-05-22T01:04:03.933Z,55.83
2023-05-22T01:05:03.890Z,55.72
2023-05-22T01:06:03.932Z,55.81
2023-05-22T01:07:03.996Z,55.58
2023-05-22T01:08:04.090Z,55.59
2023-05-22T01:09:04.078Z,55.37
2023-05-22T01:10:04.145Z,55.51
2023-05-22T01:11:04.192Z,54.96
2023-05-22T01:12:04.219Z,54.81
2023-05-22T01:13:04.297Z,54.71
2023-05-22T01:14:04.335Z,54.75
2023-05-22T01:15:04.385Z,54.53
2023-05-22T01:16:04.473Z,54.56
2023-05-22T01:17:04.485Z,54.82
2023-05-22T01:18:04.620Z,54.95
2023-05-22T01:19:04.658Z,54.81
2023-05-22T01:20:04.632Z,54.65
2023-05-22T01:21:04.701Z,55.00
2023-05-22T01:22:04.759Z,54.86
2023-05-22T01:23:04.803Z,55.19
2023-05-22T01:24:04.859Z,55.57
2023-05-22T01:25:04.931Z,55.96
2023-05-22T01:26:04.990Z,56.11
2023-05-22T01:27:05.015Z,55.95
2023-05-22T01:28:05.099Z,56.32
2023-05-22T01:29:05.139Z,56.32
2023-05-22T01:30:05.220Z,56.55
2023-05-22T01:31:05.264Z,56.55
2023-05-22T01:32:05.334Z,56.47
2023-05-22T01:33:05.435Z,56.45
2023-05-22T01:34:05.495Z,56.44
2023-05-22T01:35:05.430Z,56.34
2023-05-22T01:36:05.451Z,56.63
2023-05-22T01:37:05.474Z,56.45
2023-05-22T01:38:05.480Z,56.31
2023-05-22T01:39:05.525Z,56.74
2023-05-22T01:40:05.527Z,57.01
2023-05-22T01:41:05.535Z,57.15
2023-05-22T01:42:05.548Z,57.20
2023-05-22T01:43:05.577Z,57.21
2023-05-22T01:44:05.619Z,57.04
2023-05-22T01:45:05.615Z,57.03
2023-05-22T01:46:05.666Z,56.93
2023-05-22T01:47:05.703Z,56.86
2023-05-22T01:48:05.759Z,57.07
2023-05-22T01:49:05.727Z,56.90
2023-05-22T01:50:05.885Z,57.08
2023-05-22T01:51:05.769Z,57.49
2023-05-22T01:52:05.826Z,57.30
2023-05-22T01:53:05.851Z,57.20
2023-05-22T01:54:05.878Z,57.24
2023-05-22T01:55:05.898Z,57.13
2023-05-22T01:56:05.927Z,57.45
2023-05-22T01:57:05.952Z,57.11
2023-05-22T01:58:05.947Z,57.40
2023-05-22T01:59:05.967Z,57.07
2023-05-22T02:00:05.972Z,56.94
2023-05-22T02:01:06.024Z,56.68
2023-05-22T02:02:06.070Z,56.59
2023-05-22T02:03:06.108Z,56.29
2023-05-22T02:04:06.022Z,56.27
2023-05-22T02:05:06.047Z,56.44
2023-05-22T02:06:06.069Z,56.17
2023-05-22T02:07:06.036Z,56.47
2023-05-22T02:08:06.053Z,56.17
2023-05-22T02:09:06.063Z,56.02
2023-05-22T02:10:06.093Z,56.08
2023-05-22T02:11:06.094Z,55.95
2023-05-22T02:12:06.089Z,55.80
2023-05-22T02:13:06.098Z,55.81
2023-05-22T02:14:06.093Z,55.64
2023-05-22T02:15:06.106Z,55.64
2023-05-22T02:16:06.141Z,55.60
2023-05-22T02:17:06.122Z,55.60
2023-05-22T02:18:06.195Z,55.93
2023-05-22T02:19:06.194Z,56.26
2023-05-22T02:20:06.108Z,56.61
2023-05-22T02:21:06.128Z,57.29
2023-05-22T02:22:06.162Z,57.58
2023-05-22T02:23:06.171Z,57.58
2023-05-22T02:24:06.166Z,57.59
2023-05-22T02:25:06.187Z,57.72
2023-05-22T02:26:06.186Z,57.73
2023-05-22T02:27:06.202Z,58.22
2023-05-22T02:28:06.254Z,58.09
2023-05-22T02:29:06.247Z,58.18
2023-05-22T02:30:06.261Z,58.29
2023-05-22T02:31:06.305Z,58.45
2023-05-22T02:32:06.310Z,58.27
2023-05-22T02:33:06.458Z,58.47
2023-05-22T02:34:06.348Z,58.47
2023-05-22T02:35:06.362Z,58.83
2023-05-22T02:36:06.436Z,58.59
2023-05-22T02:37:06.408Z,58.63
2023-05-22T02:38:06.453Z,58.98
2023-05-22T02:39:06.435Z,59.07
2023-05-22T02:40:06.577Z,59.08
2023-05-22T02:41:06.534Z,58.93
2023-05-22T02:42:06.544Z,58.98
2023-05-22T02:43:06.582Z,58.85
2023-05-22T02:44:06.614Z,58.82
2023-05-22T02:45:06.640Z,58.74
2023-05-22T02:46:06.725Z,58.71
2023-05-22T02:47:06.773Z,58.67
2023-05-22T02:48:06.874Z,58.69
2023-05-22T02:49:06.851Z,58.72
2023-05-22T02:50:06.883Z,58.77
2023-05-22T02:51:06.908Z,58.66
2023-05-22T02:52:06.938Z,58.67
2023-05-22T02:53:06.981Z,58.62
2023-05-22T02:54:07.044Z,58.52
2023-05-22T02:55:07.037Z,58.56
2023-05-22T02:56:07.049Z,58.56
2023-05-22T02:57:07.071Z,58.53
2023-05-22T02:58:07.092Z,57.63
2023-05-22T02:59:07.079Z,57.64
2023-05-22T03:00:07.094Z,57.77
2023-05-22T03:01:07.111Z,57.37
2023-05-22T03:02:07.152Z,57.36
2023-05-22T03:03:07.176Z,57.48
2023-05-22T03:04:07.217Z,56.99
2023-05-22T03:05:07.108Z,56.78
2023-05-22T03:06:07.098Z,56.63
2023-05-22T03:07:07.096Z,56.51
2023-05-22T03:08:07.085Z,57.33
2023-05-22T03:09:07.091Z,56.97
2023-05-22T03:10:07.146Z,56.92
2023-05-22T03:11:07.113Z,57.78
2023-05-22T03:12:07.137Z,57.46
2023-05-22T03:13:07.187Z,58.01
2023-05-22T03:14:07.218Z,57.83
2023-05-22T03:15:07.267Z,57.88
2023-05-22T03:16:07.328Z,57.97
2023-05-22T03:17:07.365Z,58.32
2023-05-22T03:18:07.429Z,57.96
2023-05-22T03:19:07.502Z,57.87
2023-05-22T03:20:07.548Z,58.50
2023-05-22T03:21:07.541Z,58.13
2023-05-22T03:22:07.587Z,58.10
2023-05-22T03:23:07.630Z,58.51
2023-05-22T03:24:07.695Z,58.16
2023-05-22T03:25:07.712Z,58.60
2023-05-22T03:26:07.806Z,58.50
2023-05-22T03:27:07.841Z,58.35
2023-05-22T03:28:07.871Z,58.24
2023-05-22T03:29:07.964Z,58.35
2023-05-22T03:30:08.002Z,58.09
2023-05-22T03:31:08.028Z,58.18
2023-05-22T03:32:08.104Z,58.01
2023-05-22T03:33:08.226Z,58.01
2023-05-22T03:34:08.325Z,58.79
2023-05-22T03:35:08.300Z,58.57
2023-05-22T03:36:08.352Z,58.54
2023-05-22T03:37:08.396Z,58.61
2023-05-22T03:38:08.468Z,58.58
2023-05-22T03:39:08.529Z,58.46
2023-05-22T03:40:08.596Z,58.53
2023-05-22T03:41:08.671Z,58.85
2023-05-22T03:42:08.690Z,59.10
2023-05-22T03:43:08.712Z,58.80
2023-05-22T03:44:08.766Z,58.73
2023-05-22T03:45:08.813Z,58.92
2023-05-22T03:46:08.950Z,58.70
2023-05-22T03:47:08.861Z,58.60
2023-05-22T03:48:08.935Z,58.44
2023-05-22T03:49:08.888Z,58.44
2023-05-22T03:50:08.897Z,58.30
2023-05-22T03:51:08.917Z,57.94
2023-05-22T03:52:08.921Z,57.61
2023-05-22T03:53:08.963Z,57.39
2023-05-22T03:54:08.974Z,57.23
2023-05-22T03:55:08.972Z,57.13
2023-05-22T03:56:08.990Z,56.80
2023-05-22T03:57:08.995Z,56.79
2023-05-22T03:58:09.027Z,56.76
2023-05-22T03:59:09.035Z,56.76
2023-05-22T04:00:09.077Z,56.67
2023-05-22T04:01:09.104Z,56.45
2023-05-22T04:02:09.126Z,56.56
2023-05-22T04:03:09.224Z,56.53
2023-05-22T04:04:09.237Z,56.35
2023-05-22T04:05:09.259Z,56.25
2023-05-22T04:06:09.283Z,56.24
2023-05-22T04:07:09.332Z,56.08
2023-05-22T04:08:09.413Z,55.80
2023-05-22T04:09:09.461Z,55.68
2023-05-22T04:10:09.526Z,55.75
2023-05-22T04:11:09.605Z,55.82
2023-05-22T04:12:09.662Z,55.48
2023-05-22T04:13:09.731Z,55.52
2023-05-22T04:14:09.827Z,55.53
2023-05-22T04:15:09.849Z,55.53
2023-05-22T04:16:09.930Z,55.58
2023-05-22T04:17:09.917Z,55.26
2023-05-22T04:18:10.019Z,55.28
2023-05-22T04:19:10.046Z,54.72
2023-05-22T04:20:10.034Z,54.17
2023-05-22T04:21:10.080Z,53.66
2023-05-22T04:22:10.152Z,53.28
2023-05-22T04:23:10.068Z,52.83
2023-05-22T04:24:10.040Z,51.97
2023-05-22T04:25:10.019Z,51.41
2023-05-22T04:26:10.040Z,51.06
2023-05-22T04:27:10.080Z,50.22
2023-05-22T04:28:10.013Z,49.80
2023-05-22T04:29:09.978Z,48.83
2023-05-22T04:30:09.956Z,48.30
2023-05-22T04:31:09.995Z,47.54
2023-05-22T04:32:09.915Z,46.98
2023-05-22T04:33:09.950Z,46.04
2023-05-22T04:34:09.890Z,46.02
2023-05-22T04:35:09.867Z,45.34
2023-05-22T04:36:12.356Z,44.83
2023-05-22T04:37:09.795Z,44.52
2023-05-22T04:38:09.735Z,44.23
2023-05-22T04:39:09.674Z,44.21
2023-05-22T04:40:09.626Z,44.15
2023-05-22T04:41:09.603Z,44.37
2023-05-22T04:42:09.530Z,43.93
2023-05-22T04:43:09.487Z,43.92
2023-05-22T04:44:09.424Z,43.59
2023-05-22T04:45:09.354Z,43.43
2023-05-22T04:46:09.408Z,43.54
2023-05-22T04:47:09.340Z,43.10
2023-05-22T04:48:09.561Z,42.99
2023-05-22T04:49:09.111Z,43.07
2023-05-22T04:50:09.062Z,43.10
2023-05-22T04:51:09.034Z,43.33
2023-05-22T04:52:08.989Z,43.44
2023-05-22T04:53:08.932Z,43.54
2023-05-22T04:54:08.842Z,43.24
2023-05-22T04:55:08.799Z,43.33
2023-05-22T04:56:08.775Z,43.45
2023-05-22T04:57:08.683Z,43.54
2023-05-22T04:58:08.642Z,43.54
2023-05-22T04:59:08.569Z,43.61
2023-05-22T05:00:08.519Z,43.61
2023-05-22T05:01:08.460Z,43.42
2023-05-22T05:02:08.497Z,43.36
2023-05-22T05:03:08.577Z,43.07
2023-05-22T05:04:08.356Z,42.47
2023-05-22T05:05:08.219Z,42.16
2023-05-22T05:06:08.116Z,41.93
2023-05-22T05:07:08.042Z,41.95
2023-05-22T05:08:07.971Z,41.43
2023-05-22T05:09:07.902Z,42.37
2023-05-22T05:10:07.850Z,42.39
2023-05-22T05:11:07.752Z,43.49
2023-05-22T05:12:07.738Z,43.47
2023-05-22T05:13:07.592Z,43.18
2023-05-22T05:14:07.604Z,43.38
2023-05-22T05:15:07.440Z,43.63
2023-05-22T05:16:07.386Z,44.86
2023-05-22T05:17:07.286Z,45.28
2023-05-22T05:18:07.441Z,45.38
2023-05-22T05:19:07.202Z,45.74
2023-05-22T05:20:07.078Z,46.33
2023-05-22T05:21:07.013Z,46.07
2023-05-22T05:22:06.921Z,46.57
2023-05-22T05:23:07.085Z,46.08
2023-05-22T05:24:06.862Z,45.95
2023-05-22T05:25:06.792Z,45.77
2023-05-22T05:26:06.732Z,45.32
2023-05-22T05:27:06.720Z,45.24
2023-05-22T05:28:06.679Z,46.27
2023-05-22T05:29:06.663Z,45.36
2023-05-22T05:30:06.666Z,45.65
2023-05-22T05:31:07.168Z,45.13
2023-05-22T05:32:06.680Z,45.29
2023-05-22T05:33:07.162Z,45.50
2023-05-22T05:34:06.601Z,45.86
2023-05-22T05:35:06.532Z,46.00
2023-05-22T05:36:06.524Z,45.56
2023-05-22T05:37:06.496Z,45.55
2023-05-22T05:38:06.456Z,46.21
2023-05-22T05:39:06.472Z,45.97
2023-05-22T05:40:06.433Z,45.41
2023-05-22T05:41:06.407Z,45.97
2023-05-22T05:42:06.420Z,46.13
2023-05-22T05:43:08.052Z,46.11
2023-05-22T05:44:06.297Z,46.11
2023-05-22T05:45:06.583Z,46.23
2023-05-22T05:46:06.205Z,45.80
2023-05-22T05:47:06.086Z,46.05
2023-05-22T05:48:13.526Z,46.76
2023-05-22T05:49:05.970Z,46.75
2023-05-22T05:50:06.211Z,46.35
2023-05-22T05:51:05.807Z,46.48
2023-05-22T05:52:05.747Z,46.84
2023-05-22T05:53:06.111Z,46.68
2023-05-22T05:54:05.622Z,46.53
2023-05-22T05:55:05.552Z,47.30
2023-05-22T05:56:05.625Z,47.20
2023-05-22T05:57:05.449Z,47.88
2023-05-22T05:58:05.417Z,47.96
2023-05-22T05:59:05.349Z,48.14
2023-05-22T06:00:20.856Z,47.98
2023-05-22T06:01:07.329Z,47.22
2023-05-22T06:02:20.855Z,47.71
2023-05-22T06:03:06.105Z,48.56
2023-05-22T06:04:20.595Z,49.09
2023-05-22T06:06:20.605Z,49.78
2023-05-22T06:07:04.812Z,48.83
2023-05-22T06:09:08.121Z,49.47
2023-05-22T06:10:12.852Z,48.58
2023-05-22T06:11:20.393Z,48.06
2023-05-22T06:12:07.673Z,47.92
2023-05-22T06:13:04.400Z,47.34
2023-05-22T06:14:04.424Z,47.80
2023-05-22T06:15:11.998Z,47.09
2023-05-22T06:16:19.893Z,46.78
2023-05-22T06:17:04.629Z,46.63
2023-05-22T06:18:04.226Z,46.21
2023-05-22T06:19:05.157Z,46.67
2023-05-22T06:20:04.062Z,46.12
2023-05-22T06:21:05.979Z,45.63
2023-05-22T06:22:04.208Z,46.03
2023-05-22T06:23:03.683Z,46.35
2023-05-22T06:24:03.626Z,45.81
2023-05-22T06:25:03.552Z,45.98
2023-05-22T06:26:03.478Z,45.43
2023-05-22T06:27:03.624Z,45.23
2023-05-22T06:28:03.346Z,45.32
2023-05-22T06:29:03.276Z,45.05
2023-05-22T06:30:04.590Z,45.41
2023-05-22T06:31:03.367Z,45.03
2023-05-22T06:32:03.666Z,44.73
2023-05-22T06:33:03.388Z,44.34
2023-05-22T06:34:03.369Z,44.11
2023-05-22T06:35:03.456Z,44.00
2023-05-22T06:36:03.304Z,43.62
2023-05-22T06:37:03.775Z,43.38
2023-05-22T06:38:03.460Z,43.49
2023-05-22T06:39:03.261Z,43.43
2023-05-22T06:40:10.620Z,43.51
2023-05-22T06:41:03.136Z,42.95
2023-05-22T06:42:03.552Z,43.05
2023-05-22T06:43:03.007Z,42.59
2023-05-22T06:44:06.115Z,41.71
2023-05-22T06:45:02.862Z,41.52
2023-05-22T06:46:02.815Z,41.58
2023-05-22T06:47:02.708Z,41.41
2023-05-22T06:48:06.387Z,41.20
2023-05-22T06:49:03.581Z,41.26
2023-05-22T06:50:02.935Z,40.96
2023-05-22T06:51:02.425Z,40.66
2023-05-22T06:52:05.216Z,40.76
2023-05-22T06:53:05.471Z,40.89
2023-05-22T06:54:02.267Z,40.96
2023-05-22T06:55:04.289Z,40.86
2023-05-22T06:56:04.107Z,40.88
2023-05-22T06:57:02.205Z,40.13
2023-05-22T06:58:02.768Z,40.82
2023-05-22T06:59:00.934Z,40.50
2023-05-22T07:00:02.355Z,40.56
2023-05-22T07:01:01.983Z,40.19
2023-05-22T07:02:01.577Z,39.97
2023-05-22T07:03:01.728Z,39.54
2023-05-22T07:04:01.445Z,39.34
2023-05-22T07:05:02.661Z,38.97
2023-05-22T07:06:01.257Z,39.44
2023-05-22T07:07:01.183Z,39.23
2023-05-22T07:08:01.149Z,39.15
2023-05-22T07:09:01.188Z,39.07
2023-05-22T07:10:01.430Z,38.89
2023-05-22T07:11:02.332Z,38.48
2023-05-22T07:12:00.783Z,38.22
2023-05-22T07:13:01.170Z,38.44
2023-05-22T07:14:00.587Z,38.34
2023-05-22T07:15:00.522Z,38.71
2023-05-22T07:16:00.515Z,38.60
2023-05-22T07:17:01.572Z,38.67
2023-05-22T07:18:00.427Z,38.71
2023-05-22T07:19:00.301Z,38.82
2023-05-22T07:20:00.227Z,38.65
2023-05-22T07:21:00.168Z,38.52
2023-05-22T07:22:00.183Z,37.62
2023-05-22T07:23:00.161Z,37.30
2023-05-22T07:23:59.971Z,36.99
2023-05-22T07:24:59.935Z,36.90
2023-05-22T07:26:03.342Z,36.78
2023-05-22T07:26:59.834Z,36.89
2023-05-22T07:28:01.123Z,36.47
2023-05-22T07:28:59.641Z,36.72
2023-05-22T07:29:59.548Z,37.06
2023-05-22T07:31:00.455Z,37.03
2023-05-22T07:31:59.469Z,37.19
2023-05-22T07:32:59.699Z,37.84
2023-05-22T07:34:00.129Z,37.73
2023-05-22T07:34:59.329Z,37.92
2023-05-22T07:35:59.284Z,37.81
2023-05-22T07:37:02.455Z,37.62
2023-05-22T07:37:59.372Z,37.39
2023-05-22T07:39:02.289Z,37.53
2023-05-22T07:39:59.895Z,37.21
2023-05-22T07:40:58.793Z,36.66
2023-05-22T07:42:30.743Z,36.81
2023-05-22T07:42:59.366Z,36.28
2023-05-22T07:44:06.042Z,36.46
2023-05-22T07:45:00.491Z,35.83
2023-05-22T07:45:59.829Z,35.85
2023-05-22T07:47:05.771Z,35.60
2023-05-22T07:47:58.669Z,35.59
2023-05-22T07:49:01.332Z,35.91
2023-05-22T07:49:58.505Z,36.08
2023-05-22T07:50:57.930Z,35.72
2023-05-22T07:52:05.188Z,36.51
2023-05-22T07:53:00.873Z,35.49
2023-05-22T07:54:04.958Z,35.20
2023-05-22T07:54:57.648Z,35.05
2023-05-22T07:56:00.497Z,35.05
2023-05-22T07:56:57.193Z,34.90
2023-05-22T07:57:57.389Z,34.94
2023-05-22T07:58:57.157Z,35.13
2023-05-22T07:59:56.875Z,34.28
2023-05-22T08:00:56.693Z,34.14
2023-05-22T08:01:58.160Z,34.10
2023-05-22T08:02:56.766Z,33.97
2023-05-22T08:03:56.922Z,33.80
2023-05-22T08:04:56.697Z,33.57
2023-05-22T08:05:56.058Z,33.99
2023-05-22T08:06:55.943Z,33.13
2023-05-22T08:07:55.804Z,33.39
2023-05-22T08:08:56.146Z,33.77
2023-05-22T08:09:55.540Z,33.63
2023-05-22T08:11:04.159Z,33.62
2023-05-22T08:11:55.279Z,33.05
2023-05-22T08:12:55.154Z,33.09
2023-05-22T08:13:55.164Z,32.72
2023-05-22T08:14:55.067Z,32.24
2023-05-22T08:16:00.288Z,31.86
2023-05-22T08:16:54.686Z,31.80
2023-05-22T08:17:54.493Z,31.32
2023-05-22T08:18:54.698Z,30.95
2023-05-22T08:19:54.233Z,30.39
2023-05-22T08:20:54.963Z,30.41
2023-05-22T08:21:53.924Z,30.23
2023-05-22T08:22:54.692Z,29.67
2023-05-22T08:23:53.639Z,29.97
2023-05-22T08:24:53.426Z,29.66
2023-05-22T08:25:53.331Z,29.47
2023-05-22T08:26:53.146Z,29.03
2023-05-22T08:27:52.996Z,28.65
2023-05-22T08:28:53.145Z,28.18
2023-05-22T08:29:52.855Z,27.97
2023-05-22T08:30:52.528Z,28.74
2023-05-22T08:31:52.487Z,28.87
2023-05-22T08:32:52.668Z,28.78
2023-05-22T08:33:52.184Z,28.29
2023-05-22T08:34:51.882Z,27.89
2023-05-22T08:35:51.705Z,27.57
2023-05-22T08:36:51.583Z,26.84
2023-05-22T08:37:51.413Z,27.06
2023-05-22T08:38:51.675Z,27.14
2023-05-22T08:39:58.583Z,27.15
2023-05-22T08:40:51.212Z,27.25
2023-05-22T08:41:49.837Z,27.02
2023-05-22T08:42:51.660Z,26.96
2023-05-22T08:43:50.659Z,26.85
2023-05-22T08:44:50.316Z,26.94
2023-05-22T08:45:50.310Z,26.85
2023-05-22T08:46:49.983Z,26.66
2023-05-22T08:47:50.151Z,26.73
2023-05-22T08:48:49.633Z,26.80
2023-05-22T08:49:49.453Z,26.93
2023-05-22T08:50:49.325Z,26.71
2023-05-22T08:51:49.168Z,26.45
2023-05-22T08:52:49.169Z,26.10
2023-05-22T08:53:48.890Z,25.98
2023-05-22T08:54:48.717Z,25.42
2023-05-22T08:55:48.560Z,25.64
2023-05-22T08:56:56.283Z,24.94
2023-05-22T08:57:48.654Z,25.04
2023-05-22T08:58:48.038Z,24.54
2023-05-22T08:59:47.862Z,24.33
2023-05-22T09:00:47.719Z,24.70
2023-05-22T09:01:47.582Z,24.39
2023-05-22T09:02:47.701Z,24.49
2023-05-22T09:03:47.678Z,24.34
2023-05-22T09:04:46.972Z,24.37
2023-05-22T09:05:46.770Z,23.98
2023-05-22T09:06:46.660Z,23.66
2023-05-22T09:07:46.661Z,23.34
2023-05-22T09:08:46.224Z,22.82
2023-05-22T09:09:46.174Z,22.55
2023-05-22T09:10:45.854Z,23.32
2023-05-22T09:11:46.162Z,23.51
2023-05-22T09:12:45.484Z,23.47
2023-05-22T09:13:45.302Z,23.66
2023-05-22T09:14:45.112Z,23.34
2023-05-22T09:15:44.923Z,23.66
2023-05-22T09:16:44.768Z,23.61
2023-05-22T09:17:44.623Z,23.32
2023-05-22T09:18:44.413Z,23.17
2023-05-22T09:19:44.121Z,23.00
2023-05-22T09:20:44.162Z,23.54
2023-05-22T09:21:44.250Z,23.55
2023-05-22T09:22:43.553Z,23.43
2023-05-22T09:23:43.344Z,23.13
2023-05-22T09:24:43.241Z,22.85
2023-05-22T09:25:43.109Z,23.09
2023-05-22T09:26:43.313Z,23.23
2023-05-22T09:27:43.658Z,22.85
2023-05-22T09:28:42.667Z,23.28
2023-05-22T09:29:42.223Z,22.75
2023-05-22T09:30:42.439Z,22.72
2023-05-22T09:31:45.332Z,22.61
2023-05-22T09:32:41.768Z,22.42
2023-05-22T09:33:41.691Z,22.13
2023-05-22T09:35:13.038Z,23.05
2023-05-22T09:35:44.379Z,23.40
2023-05-22T09:36:40.852Z,23.19
2023-05-22T09:37:40.619Z,22.55
2023-05-22T09:38:40.451Z,22.60
2023-05-22T09:39:40.247Z,22.67
2023-05-22T09:40:40.441Z,22.56
2023-05-22T09:41:43.009Z,22.62
2023-05-22T09:42:39.619Z,22.22
2023-05-22T09:43:39.685Z,22.43
2023-05-22T09:44:39.220Z,22.33
2023-05-22T09:45:42.226Z,22.27
2023-05-22T09:46:39.303Z,21.68
2023-05-22T09:47:38.710Z,21.56
2023-05-22T09:48:38.453Z,21.60
2023-05-22T09:49:38.292Z,21.63
2023-05-22T09:50:38.236Z,21.80
2023-05-22T09:51:37.887Z,21.43
2023-05-22T09:52:37.652Z,21.29
2023-05-22T09:53:37.682Z,20.88
2023-05-22T09:54:37.269Z,21.04
2023-05-22T09:55:37.060Z,20.90
2023-05-22T09:56:39.874Z,20.75
2023-05-22T09:57:36.935Z,20.69
2023-05-22T09:58:36.491Z,20.69
2023-05-22T09:59:36.316Z,20.97
2023-05-22T10:00:36.073Z,21.09
2023-05-22T10:01:35.972Z,20.92
2023-05-22T10:02:35.756Z,20.90
2023-05-22T10:03:35.686Z,21.03
2023-05-22T10:04:35.353Z,21.21
2023-05-22T10:05:35.193Z,21.33
2023-05-22T10:06:34.929Z,21.25
2023-05-22T10:07:34.734Z,21.42
2023-05-22T10:08:34.701Z,21.17
2023-05-22T10:09:34.776Z,20.35
2023-05-22T10:10:34.194Z,21.11
2023-05-22T10:11:34.019Z,21.24
2023-05-22T10:12:33.790Z,21.43
2023-05-22T10:13:33.686Z,21.60
2023-05-22T10:14:33.784Z,21.46
2023-05-22T10:15:33.249Z,21.69
2023-05-22T10:16:33.103Z,21.92
2023-05-22T10:17:32.883Z,21.83
2023-05-22T10:18:33.694Z,21.27
2023-05-22T10:19:32.509Z,21.66
2023-05-22T10:20:32.287Z,21.64
2023-05-22T10:21:32.258Z,21.82
2023-05-22T10:22:32.005Z,22.02
2023-05-22T10:23:32.195Z,22.02
2023-05-22T10:24:31.779Z,21.81
2023-05-22T10:25:31.705Z,21.88
2023-05-22T10:26:31.286Z,21.88
2023-05-22T10:27:31.089Z,22.35
2023-05-22T10:28:31.212Z,22.18
2023-05-22T10:29:30.759Z,22.46
2023-05-22T10:30:30.580Z,21.61
2023-05-22T10:31:30.383Z,21.54
2023-05-22T10:32:30.728Z,21.45
2023-05-22T10:33:30.059Z,21.98
2023-05-22T10:34:29.830Z,21.42
2023-05-22T10:35:29.624Z,21.01
2023-05-22T10:36:29.431Z,21.13
2023-05-22T10:37:29.403Z,21.21
2023-05-22T10:38:29.202Z,21.42
2023-05-22T10:39:28.937Z,20.71
2023-05-22T10:40:29.334Z,20.27
2023-05-22T10:41:28.560Z,20.69
2023-05-22T10:42:28.346Z,21.27
2023-05-22T10:43:28.177Z,20.41
2023-05-22T10:44:28.025Z,20.08
2023-05-22T10:45:27.907Z,20.31
2023-05-22T10:46:27.749Z,20.29
2023-05-22T10:47:27.531Z,20.24
2023-05-22T10:48:27.721Z,19.93
2023-05-22T10:49:27.214Z,19.94
2023-05-22T10:50:27.020Z,19.97
2023-05-22T10:51:26.829Z,20.29
2023-05-22T10:52:26.663Z,21.29
2023-05-22T10:53:26.846Z,21.24
2023-05-22T10:54:26.376Z,21.15
2023-05-22T10:55:26.233Z,21.22
2023-05-22T10:56:26.099Z,21.34
2023-05-22T10:57:25.989Z,21.72
2023-05-22T10:58:26.210Z,21.78
2023-05-22T10:59:26.644Z,21.75
2023-05-22T11:00:25.474Z,20.49
2023-05-22T11:01:25.275Z,20.60
2023-05-22T11:02:40.794Z,21.23
2023-05-22T11:03:25.273Z,21.26
2023-05-22T11:04:25.263Z,20.38
2023-05-22T11:05:24.561Z,20.44
2023-05-22T11:06:25.361Z,20.65
2023-05-22T11:07:24.199Z,20.68
2023-05-22T11:08:24.218Z,21.13
2023-05-22T11:10:23.776Z,21.25
2023-05-22T11:11:23.518Z,21.25
2023-05-22T11:12:23.320Z,21.73
2023-05-22T11:13:23.237Z,22.00
2023-05-22T11:14:23.223Z,22.39
2023-05-22T11:15:22.788Z,22.02
2023-05-22T11:16:22.721Z,21.80
2023-05-22T11:17:22.447Z,22.13
2023-05-22T11:18:22.304Z,21.67
2023-05-22T11:19:24.048Z,22.34
2023-05-22T11:20:21.939Z,22.44
2023-05-22T11:21:21.791Z,22.12
2023-05-22T11:22:21.595Z,21.66
2023-05-22T11:23:21.741Z,21.50
2023-05-22T11:24:21.756Z,21.62
2023-05-22T11:25:21.076Z,22.02
2023-05-22T11:26:21.041Z,21.88
2023-05-22T11:27:20.703Z,22.02
2023-05-22T11:28:21.507Z,21.70
2023-05-22T11:29:21.050Z,22.39
2023-05-22T11:30:20.166Z,23.45
2023-05-22T11:31:20.051Z,22.95
2023-05-22T11:32:19.806Z,22.15
2023-05-22T11:33:19.751Z,21.53
2023-05-22T11:34:19.504Z,22.52
2023-05-22T11:35:19.274Z,21.94
2023-05-22T11:36:19.075Z,23.75
2023-05-22T11:37:18.915Z,22.10
2023-05-22T11:38:18.742Z,20.88
2023-05-22T11:39:18.532Z,21.53
2023-05-22T11:40:18.351Z,21.60
2023-05-22T11:41:18.165Z,21.66
2023-05-22T11:42:18.102Z,22.30
2023-05-22T11:43:17.802Z,20.35
2023-05-22T11:44:17.636Z,20.90
2023-05-22T11:45:17.411Z,20.93
2023-05-22T11:46:17.274Z,20.32
2023-05-22T11:47:17.053Z,20.44
2023-05-22T11:48:16.955Z,21.46
2023-05-22T11:49:16.759Z,20.68
2023-05-22T11:50:22.498Z,21.98
2023-05-22T11:51:16.418Z,19.68
2023-05-22T11:52:16.157Z,20.43
2023-05-22T11:53:16.029Z,21.28
2023-05-22T11:54:15.842Z,20.50
2023-05-22T11:55:15.707Z,20.42
2023-05-22T11:56:15.587Z,20.28
2023-05-22T11:57:15.366Z,21.35
2023-05-22T11:58:15.364Z,22.16
2023-05-22T11:59:15.029Z,21.44
2023-05-22T12:00:14.941Z,22.01
2023-05-22T12:01:14.722Z,21.78
2023-05-22T12:02:14.744Z,20.28
2023-05-22T12:03:14.420Z,19.70
2023-05-22T12:04:14.262Z,20.44
2023-05-22T12:05:14.008Z,20.76
2023-05-22T12:06:16.429Z,21.67
2023-05-22T12:07:13.744Z,23.59
2023-05-22T12:08:13.764Z,22.18
2023-05-22T12:09:13.401Z,21.94
2023-05-22T12:10:13.940Z,22.56
2023-05-22T12:11:28.704Z,24.44
2023-05-22T12:12:13.272Z,23.38
2023-05-22T12:13:15.997Z,21.81
2023-05-22T12:14:12.800Z,22.70
2023-05-22T12:15:12.502Z,22.29
2023-05-22T12:16:12.493Z,21.46
2023-05-22T12:17:12.229Z,22.46
2023-05-22T12:18:12.107Z,21.71
2023-05-22T12:19:12.318Z,22.32
2023-05-22T12:20:11.772Z,21.69
2023-05-22T12:21:11.610Z,22.23
2023-05-22T12:22:11.560Z,21.84
2023-05-22T12:23:11.309Z,24.19
2023-05-22T12:24:11.250Z,21.36
2023-05-22T12:25:11.083Z,19.50
2023-05-22T12:26:10.899Z,18.75
2023-05-22T12:27:10.915Z,21.08
2023-05-22T12:28:10.628Z,20.48
2023-05-22T12:29:10.740Z,19.98
2023-05-22T12:30:10.556Z,19.74
2023-05-22T12:31:10.285Z,20.78
2023-05-22T12:32:10.085Z,20.29
2023-05-22T12:33:10.283Z,22.62
2023-05-22T12:34:09.814Z,22.56
2023-05-22T12:35:09.664Z,21.63
2023-05-22T12:36:09.524Z,19.61
2023-05-22T12:37:09.396Z,21.52
2023-05-22T12:38:09.751Z,21.27
2023-05-22T12:39:09.165Z,22.91
2023-05-22T12:40:08.968Z,21.32
2023-05-22T12:41:08.875Z,21.03
2023-05-22T12:42:08.818Z,19.78
2023-05-22T12:43:08.570Z,22.74
2023-05-22T12:48:05.354Z,23.94
2023-05-22T12:49:06.282Z,25.57
2023-05-22T12:50:06.204Z,25.00
2023-05-22T12:51:06.212Z,25.66
2023-05-22T12:52:06.212Z,23.69
2023-05-22T12:53:06.404Z,24.32
2023-05-22T12:54:06.233Z,25.08
2023-05-22T12:55:06.225Z,25.63
2023-05-22T12:56:06.193Z,25.28
2023-05-22T12:57:06.151Z,25.02
2023-05-22T12:58:06.635Z,24.94